createdAt,value
2023-04-21T00:00:53.808Z,15.20
2023-04-21T00:03:22.507Z,12.73
2023-04-21T00:05:50.733Z,12.57
2023-04-21T00:08:18.094Z,12.53
2023-04-21T00:10:46.788Z,13.63
2023-04-21T00:13:14.046Z,14.87
2023-04-21T00:15:40.988Z,15.63
2023-04-21T00:18:07.567Z,15.17
2023-04-21T00:20:34.109Z,15.60
2023-04-21T00:23:00.727Z,15.40
2023-04-21T00:25:27.420Z,12.90
2023-04-21T00:27:54.012Z,12.40
2023-04-21T00:30:20.588Z,15.53
2023-04-21T00:32:47.351Z,15.27
2023-04-21T00:35:14.209Z,14.10
2023-04-21T00:37:41.765Z,13.37
2023-04-21T00:40:09.294Z,16.80
2023-04-21T00:42:35.961Z,13.70
2023-04-21T00:45:03.964Z,13.00
2023-04-21T00:47:31.258Z,13.50
2023-04-21T00:50:00.999Z,12.57
2023-04-21T00:52:28.329Z,13.83
2023-04-21T00:54:55.239Z,13.10
2023-04-21T00:57:21.967Z,13.90
2023-04-21T00:59:49.933Z,13.33
2023-04-21T01:02:17.097Z,12.87
2023-04-21T01:04:45.761Z,13.60
2023-04-21T01:07:12.471Z,15.70
2023-04-21T01:09:39.059Z,12.13
2023-04-21T01:12:11.173Z,13.67
2023-04-21T01:14:38.952Z,13.00
2023-04-21T01:17:06.224Z,13.73
2023-04-21T01:19:36.000Z,14.63
2023-04-21T01:22:03.684Z,12.37
2023-04-21T01:24:41.261Z,14.40
2023-04-21T01:27:12.216Z,16.33
2023-04-21T01:29:40.489Z,13.47
2023-04-21T01:32:09.781Z,15.27
2023-04-21T01:34:36.602Z,15.20
2023-04-21T01:37:03.602Z,16.20
2023-04-21T01:39:30.217Z,14.97
2023-04-21T01:41:58.001Z,14.47
2023-04-21T01:44:26.295Z,15.97
2023-04-21T01:46:53.458Z,14.47
2023-04-21T01:49:20.500Z,12.97
2023-04-21T01:51:47.238Z,13.27
2023-04-21T01:54:13.778Z,13.97
2023-04-21T01:56:40.527Z,13.97
2023-04-21T01:59:07.273Z,15.80
2023-04-21T02:01:34.907Z,14.33
2023-04-21T02:04:02.355Z,13.20
2023-04-21T02:06:29.965Z,14.50
2023-04-21T02:08:56.511Z,14.97
2023-04-21T02:11:25.116Z,16.57
2023-04-21T02:13:55.117Z,13.83
2023-04-21T02:16:26.306Z,14.77
2023-04-21T02:18:53.809Z,13.03
2023-04-21T02:21:24.291Z,14.47
2023-04-21T02:23:51.647Z,19.23
2023-04-21T02:26:18.886Z,15.60
2023-04-21T02:28:45.585Z,16.33
2023-04-21T02:31:12.226Z,15.50
2023-04-21T02:33:38.736Z,15.10
2023-04-21T02:36:05.745Z,13.63
2023-04-21T02:38:32.287Z,12.73
2023-04-21T02:40:58.868Z,14.03
2023-04-21T02:43:25.517Z,12.30
2023-04-21T02:45:52.225Z,15.07
2023-04-21T02:48:23.229Z,14.37
2023-04-21T02:50:50.719Z,13.40
2023-04-21T02:53:17.314Z,12.03
2023-04-21T02:55:44.050Z,10.90
2023-04-21T02:58:11.110Z,11.73
2023-04-21T03:00:37.813Z,13.00
2023-04-21T03:03:04.656Z,10.90
2023-04-21T03:05:31.262Z,11.30
2023-04-21T03:07:57.866Z,11.70
2023-04-21T03:10:24.493Z,12.87
2023-04-21T03:12:51.081Z,12.53
2023-04-21T03:15:17.779Z,12.33
2023-04-21T03:17:44.582Z,12.10
2023-04-21T03:20:12.851Z,11.70
2023-04-21T03:22:39.667Z,12.67
2023-04-21T03:25:07.543Z,14.53
2023-04-21T03:27:34.726Z,12.07
2023-04-21T03:30:01.445Z,12.67
2023-04-21T03:32:28.141Z,11.13
2023-04-21T03:34:54.796Z,10.77
2023-04-21T03:37:21.368Z,11.20
2023-04-21T03:39:47.986Z,10.40
2023-04-21T03:42:14.494Z,11.33
2023-04-21T03:44:41.508Z,13.27
2023-04-21T03:47:07.984Z,10.77
2023-04-21T03:49:34.980Z,11.27
2023-04-21T03:52:01.836Z,10.17
2023-04-21T03:54:28.459Z,10.77
2023-04-21T03:56:55.052Z,11.87
2023-04-21T03:59:21.775Z,11.73
2023-04-21T04:01:48.607Z,11.50
2023-04-21T04:04:15.545Z,12.60
2023-04-21T04:06:42.389Z,11.57
2023-04-21T04:09:09.224Z,14.80
2023-04-21T04:11:35.954Z,11.47
2023-04-21T04:14:02.607Z,12.43
2023-04-21T04:16:29.431Z,11.67
2023-04-21T04:18:56.561Z,11.53
2023-04-21T04:21:23.302Z,10.67
2023-04-21T04:23:53.475Z,12.00
2023-04-21T04:26:22.704Z,10.30
2023-04-21T04:28:49.299Z,11.00
2023-04-21T04:31:17.240Z,10.97
2023-04-21T04:33:44.349Z,9.77
2023-04-21T04:36:14.140Z,9.63
2023-04-21T04:38:41.770Z,9.40
2023-04-21T04:41:09.208Z,11.10
2023-04-21T04:43:39.501Z,9.40
2023-04-21T04:46:06.402Z,11.17
2023-04-21T04:48:33.118Z,10.30
2023-04-21T04:50:59.645Z,10.10
2023-04-21T04:53:28.415Z,10.60
2023-04-21T04:55:55.174Z,9.83
2023-04-21T04:58:22.154Z,10.40
2023-04-21T05:00:48.970Z,9.13
2023-04-21T05:03:15.811Z,9.70
2023-04-21T05:05:42.588Z,11.47
2023-04-21T05:08:09.111Z,11.47
2023-04-21T05:10:35.706Z,11.33
2023-04-21T05:13:02.321Z,13.63
2023-04-21T05:15:28.837Z,11.80
2023-04-21T05:17:55.619Z,12.00
2023-04-21T05:20:22.978Z,12.27
2023-04-21T05:22:50.154Z,11.17
2023-04-21T05:25:16.764Z,12.10
2023-04-21T05:27:43.435Z,11.70
2023-04-21T05:30:10.780Z,11.97
2023-04-21T05:32:37.442Z,11.40
2023-04-21T05:35:04.094Z,10.90
2023-04-21T05:37:30.782Z,11.37
2023-04-21T05:39:57.481Z,11.70
2023-04-21T05:42:24.047Z,13.10
2023-04-21T05:44:50.765Z,24.00
2023-04-21T05:47:17.566Z,14.93
2023-04-21T05:49:50.235Z,12.60
2023-04-21T05:52:17.965Z,12.67
2023-04-21T05:54:44.667Z,12.97
2023-04-21T05:57:11.287Z,12.50
2023-04-21T05:59:37.928Z,12.53
2023-04-21T06:02:04.630Z,12.33
2023-04-21T06:04:31.627Z,12.03
2023-04-21T06:06:58.372Z,14.00
2023-04-21T06:09:24.856Z,12.87
2023-04-21T06:11:51.415Z,13.97
2023-04-21T06:14:18.073Z,13.00
2023-04-21T06:16:44.903Z,14.10
2023-04-21T06:19:12.464Z,14.10
2023-04-21T06:21:39.008Z,13.20
2023-04-21T06:24:05.868Z,15.40
2023-04-21T06:26:32.443Z,14.20
2023-04-21T06:28:58.929Z,14.57
2023-04-21T06:31:25.536Z,13.73
2023-04-21T06:33:52.288Z,15.27
2023-04-21T06:36:18.862Z,15.47
2023-04-21T06:38:45.478Z,14.33
2023-04-21T06:41:12.059Z,13.57
2023-04-21T06:43:38.620Z,13.67
2023-04-21T06:46:05.370Z,14.03
2023-04-21T06:48:32.332Z,13.60
2023-04-21T06:50:59.098Z,13.63
2023-04-21T06:53:25.663Z,13.63
2023-04-21T06:55:53.425Z,15.13
2023-04-21T06:58:21.283Z,12.73
2023-04-21T07:00:48.270Z,13.67
2023-04-21T07:03:15.084Z,11.47
2023-04-21T07:05:41.766Z,12.30
2023-04-21T07:08:08.283Z,13.00
2023-04-21T07:10:34.870Z,12.60
2023-04-21T07:13:01.610Z,13.20
2023-04-21T07:15:28.140Z,12.40
2023-04-21T07:17:55.146Z,11.07
2023-04-21T07:20:22.353Z,15.13
2023-04-21T07:22:48.893Z,13.27
2023-04-21T07:25:15.912Z,13.40
2023-04-21T07:27:42.556Z,13.67
2023-04-21T07:30:09.476Z,11.83
2023-04-21T07:32:38.604Z,12.10
2023-04-21T07:35:06.507Z,12.67
2023-04-21T07:37:33.191Z,12.17
2023-04-21T07:39:59.776Z,13.00
2023-04-21T07:42:26.909Z,12.90
2023-04-21T07:44:53.777Z,10.83
2023-04-21T07:47:20.577Z,11.20
2023-04-21T07:49:47.197Z,12.17
2023-04-21T07:52:13.664Z,12.57
2023-04-21T07:54:40.366Z,12.13
2023-04-21T07:57:09.610Z,12.90
2023-04-21T07:59:36.529Z,11.73
2023-04-21T08:02:03.305Z,11.57
2023-04-21T08:04:30.144Z,11.07
2023-04-21T08:06:59.296Z,10.53
2023-04-21T08:09:26.616Z,10.20
2023-04-21T08:11:53.949Z,10.50
2023-04-21T08:14:22.431Z,9.93
2023-04-21T08:16:49.209Z,9.93
2023-04-21T08:19:15.913Z,10.67
2023-04-21T08:21:42.384Z,9.57
2023-04-21T08:24:09.196Z,11.10
2023-04-21T08:26:35.895Z,10.70
2023-04-21T08:29:04.337Z,10.00
2023-04-21T08:31:31.694Z,10.53
2023-04-21T08:34:02.061Z,10.20
2023-04-21T08:36:30.363Z,11.67
2023-04-21T08:38:57.789Z,10.90
2023-04-21T08:41:24.981Z,11.57
2023-04-21T08:43:51.646Z,12.50
2023-04-21T08:46:19.258Z,10.80
2023-04-21T08:48:47.158Z,13.50
2023-04-21T08:51:21.877Z,11.20
2023-04-21T08:53:48.419Z,9.90
2023-04-21T08:56:15.404Z,10.93
2023-04-21T08:58:42.200Z,12.30
2023-04-21T09:01:09.066Z,12.70
2023-04-21T09:03:35.740Z,11.93
2023-04-21T09:06:08.175Z,11.30
2023-04-21T09:08:39.724Z,11.93
2023-04-21T09:11:06.245Z,10.90
2023-04-21T09:13:37.544Z,12.30
2023-04-21T09:16:08.443Z,11.60
2023-04-21T09:18:37.434Z,9.90
2023-04-21T09:21:07.182Z,12.70
2023-04-21T09:23:46.870Z,11.90
2023-04-21T09:26:14.155Z,10.03
2023-04-21T09:28:44.725Z,10.70
2023-04-21T09:31:21.990Z,10.77
2023-04-21T09:33:57.783Z,10.23
2023-04-21T09:36:28.469Z,10.70
2023-04-21T09:39:17.423Z,9.10
2023-04-21T09:41:41.851Z,9.70
2023-04-21T09:44:08.568Z,11.30
2023-04-21T09:46:37.953Z,10.53
2023-04-21T09:49:05.771Z,11.03
2023-04-21T09:52:05.271Z,9.73
2023-04-21T09:54:29.663Z,10.20
2023-04-21T09:57:00.275Z,8.40
2023-04-21T09:59:30.302Z,11.00
2023-04-21T10:01:58.376Z,8.63
2023-04-21T10:04:26.295Z,8.50
2023-04-21T10:06:53.518Z,9.23
2023-04-21T10:09:22.925Z,10.03
2023-04-21T10:11:49.652Z,9.50
2023-04-21T10:14:16.111Z,10.33
2023-04-21T10:16:43.166Z,9.87
2023-04-21T10:19:26.894Z,9.50
2023-04-21T10:21:59.916Z,10.67
2023-04-21T10:24:30.640Z,11.20
2023-04-21T10:26:59.619Z,11.53
2023-04-21T10:29:40.270Z,10.30
2023-04-21T10:32:10.856Z,11.00
2023-04-21T10:34:41.512Z,10.83
2023-04-21T10:37:11.829Z,10.90
2023-04-21T10:39:55.077Z,10.33
2023-04-21T10:42:27.405Z,10.63
2023-04-21T10:44:56.933Z,10.93
2023-04-21T10:47:44.877Z,9.03
2023-04-21T10:50:21.603Z,10.10
2023-04-21T10:52:59.916Z,8.60
2023-04-21T10:55:27.992Z,10.20
2023-04-21T10:57:54.580Z,9.50
2023-04-21T11:00:23.662Z,8.43
2023-04-21T11:02:55.765Z,8.30
2023-04-21T11:05:28.474Z,8.73
2023-04-21T11:08:03.514Z,8.40
2023-04-21T11:10:30.020Z,8.43
2023-04-21T11:12:57.665Z,7.40
2023-04-21T11:15:24.197Z,7.60
2023-04-21T11:17:51.301Z,8.00
2023-04-21T11:20:17.938Z,8.87
2023-04-21T11:22:44.495Z,7.20
2023-04-21T11:25:18.434Z,8.67
2023-04-21T11:27:56.785Z,8.40
2023-04-21T11:30:35.888Z,7.30
2023-04-21T11:33:03.075Z,8.17
2023-04-21T11:35:29.710Z,8.57
2023-04-21T11:37:56.570Z,12.77
2023-04-21T11:40:23.335Z,12.70
2023-04-21T11:42:50.554Z,7.90
2023-04-21T11:45:21.282Z,8.07
2023-04-21T11:47:49.077Z,7.50
2023-04-21T11:50:32.284Z,7.87
2023-04-21T11:52:58.862Z,6.60
2023-04-21T11:55:25.570Z,6.40
2023-04-21T11:57:52.131Z,8.07
2023-04-21T12:00:19.316Z,7.60
2023-04-21T12:02:54.916Z,8.40
2023-04-21T12:05:22.514Z,8.20
2023-04-21T12:07:49.354Z,6.83
2023-04-21T12:10:21.027Z,6.97
2023-04-21T12:12:48.313Z,7.20
2023-04-21T12:15:20.330Z,6.70
2023-04-21T12:17:48.749Z,6.40
2023-04-21T12:20:23.860Z,7.03
2023-04-21T12:22:50.481Z,7.53
2023-04-21T12:25:17.266Z,6.60
2023-04-21T12:27:54.505Z,6.30
2023-04-21T12:30:21.786Z,7.30
2023-04-21T12:32:48.811Z,5.70
2023-04-21T12:35:15.738Z,5.97
2023-04-21T12:37:42.336Z,6.10
2023-04-21T12:40:09.650Z,6.03
2023-04-21T12:42:38.084Z,5.67
2023-04-21T12:45:05.696Z,6.40
2023-04-21T12:47:32.368Z,6.53
2023-04-21T12:49:59.173Z,6.03
2023-04-21T12:52:26.223Z,6.33
2023-04-21T12:54:52.860Z,6.90
2023-04-21T12:57:19.431Z,6.50
2023-04-21T12:59:46.577Z,6.93
2023-04-21T13:02:13.536Z,6.63
2023-04-21T13:04:42.128Z,5.67
2023-04-21T13:07:09.073Z,5.77
2023-04-21T13:09:35.723Z,6.67
2023-04-21T13:12:02.315Z,6.60
2023-04-21T13:14:29.368Z,6.80
2023-04-21T13:16:56.041Z,6.20
2023-04-21T13:19:22.720Z,5.57
2023-04-21T13:21:50.119Z,6.27
2023-04-21T13:24:17.650Z,7.50
2023-04-21T13:26:44.182Z,6.97
2023-04-21T13:29:10.715Z,6.17
2023-04-21T13:31:37.469Z,6.33
2023-04-21T13:34:04.196Z,4.80
2023-04-21T13:36:31.305Z,4.70
2023-04-21T13:38:59.159Z,5.63
2023-04-21T13:41:25.707Z,5.50
2023-04-21T13:43:52.357Z,5.50
2023-04-21T13:46:19.967Z,5.27
2023-04-21T13:48:46.723Z,4.57
2023-04-21T13:51:13.623Z,4.07
2023-04-21T13:53:41.401Z,4.43
2023-04-21T13:56:08.521Z,4.07
2023-04-21T13:58:35.950Z,3.40
2023-04-21T14:01:03.033Z,4.20
2023-04-21T14:03:29.953Z,3.53
2023-04-21T14:05:57.301Z,4.10
2023-04-21T14:08:24.305Z,4.10
2023-04-21T14:10:50.905Z,3.37
2023-04-21T14:15:50.217Z,3.80
2023-04-21T14:18:16.877Z,4.03
2023-04-21T14:20:43.556Z,3.27
2023-04-21T14:23:10.240Z,3.80
2023-04-21T14:25:36.776Z,3.50
2023-04-21T14:28:07.374Z,3.83
2023-04-21T14:30:37.883Z,4.23
2023-04-21T14:33:04.802Z,4.10
2023-04-21T14:35:31.605Z,3.40
2023-04-21T14:37:59.240Z,3.60
2023-04-21T14:40:25.944Z,3.70
2023-04-21T14:42:52.710Z,3.20
2023-04-21T14:45:19.240Z,3.30
2023-04-21T14:47:45.942Z,2.80
2023-04-21T14:50:12.631Z,3.53
2023-04-21T14:52:39.948Z,2.57
2023-04-21T14:55:06.896Z,2.80
2023-04-21T14:57:33.490Z,2.97
2023-04-21T15:00:00.339Z,3.87
2023-04-21T15:02:27.246Z,3.03
2023-04-21T15:04:54.009Z,3.50
2023-04-21T15:07:24.301Z,2.90
2023-04-21T15:09:52.135Z,3.00
2023-04-21T15:12:18.812Z,2.53
2023-04-21T15:14:45.532Z,3.40
2023-04-21T15:17:12.155Z,3.23
2023-04-21T15:19:38.747Z,3.10
2023-04-21T15:22:05.494Z,3.03
2023-04-21T15:24:32.073Z,2.80
2023-04-21T15:26:58.783Z,2.90
2023-04-21T15:29:25.524Z,3.93
2023-04-21T15:31:52.280Z,2.70
2023-04-21T15:34:18.944Z,3.20
2023-04-21T15:36:45.497Z,2.50
2023-04-21T15:39:14.241Z,3.00
2023-04-21T15:41:41.107Z,3.00
2023-04-21T15:44:07.948Z,2.47
2023-04-21T15:46:34.763Z,2.63
2023-04-21T15:49:01.515Z,3.37
2023-04-21T15:51:28.259Z,3.47
2023-04-21T15:53:54.906Z,2.93
2023-04-21T15:56:21.994Z,2.77
2023-04-21T15:58:48.581Z,3.00
2023-04-21T16:01:15.737Z,3.33
2023-04-21T16:03:42.812Z,3.23
2023-04-21T16:06:09.617Z,3.37
2023-04-21T16:08:36.231Z,3.10
2023-04-21T16:11:02.893Z,3.10
2023-04-21T16:13:29.702Z,3.90
2023-04-21T16:15:56.676Z,3.57
2023-04-21T16:18:23.527Z,3.47
2023-04-21T16:20:50.211Z,2.93
2023-04-21T16:23:17.249Z,3.30
2023-04-21T16:25:44.116Z,3.63
2023-04-21T16:28:11.744Z,3.70
2023-04-21T16:30:43.669Z,4.00
2023-04-21T16:33:14.491Z,3.57
2023-04-21T16:35:41.664Z,3.37
2023-04-21T16:38:08.510Z,3.40
2023-04-21T16:40:35.120Z,3.60
2023-04-21T16:43:01.684Z,3.60
2023-04-21T16:45:29.292Z,3.13
2023-04-21T16:47:56.561Z,3.40
2023-04-21T16:50:23.573Z,3.67
2023-04-21T16:52:50.185Z,4.40
2023-04-21T16:55:16.796Z,4.33
2023-04-21T16:57:43.250Z,5.20
2023-04-21T17:00:10.513Z,4.60
2023-04-21T17:02:37.321Z,4.07
2023-04-21T17:05:04.324Z,3.60
2023-04-21T17:07:32.045Z,3.80
2023-04-21T17:09:58.777Z,3.20
2023-04-21T17:12:25.563Z,3.70
2023-04-21T17:14:52.262Z,4.23
2023-04-21T17:17:18.906Z,4.87
2023-04-21T17:19:45.757Z,4.90
2023-04-21T17:22:12.494Z,4.03
2023-04-21T17:24:51.988Z,3.63
2023-04-21T17:27:20.243Z,4.70
2023-04-21T17:29:47.099Z,3.90
2023-04-21T17:32:14.333Z,3.50
2023-04-21T17:34:41.043Z,3.20
2023-04-21T17:37:07.557Z,3.43
2023-04-21T17:39:34.145Z,4.20
2023-04-21T17:42:02.576Z,3.90
2023-04-21T17:44:29.358Z,4.13
2023-04-21T17:46:56.129Z,4.23
2023-04-21T17:49:24.900Z,4.67
2023-04-21T17:51:51.968Z,3.87
2023-04-21T17:54:18.702Z,3.87
2023-04-21T17:56:48.246Z,4.03
2023-04-21T17:59:14.865Z,3.70
2023-04-21T18:01:41.470Z,3.70
2023-04-21T18:04:08.578Z,3.37
2023-04-21T18:06:35.832Z,3.17
2023-04-21T18:09:02.817Z,3.50
2023-04-21T18:11:29.407Z,3.20
2023-04-21T18:13:56.079Z,3.20
2023-04-21T18:16:22.724Z,3.83
2023-04-21T18:18:50.127Z,3.53
2023-04-21T18:21:16.804Z,4.70
2023-04-21T18:23:43.708Z,3.97
2023-04-21T18:26:10.242Z,5.40
2023-04-21T18:28:36.839Z,5.00
2023-04-21T18:31:03.566Z,4.63
2023-04-21T18:33:30.244Z,6.50
2023-04-21T18:35:56.805Z,6.33
2023-04-21T18:38:23.346Z,5.43
2023-04-21T18:40:49.805Z,5.70
2023-04-21T18:43:16.326Z,5.20
2023-04-21T18:45:42.919Z,5.20
2023-04-21T18:48:09.621Z,5.57
2023-04-21T18:50:40.140Z,5.67
2023-04-21T18:53:07.714Z,6.27
2023-04-21T18:55:35.986Z,6.40
2023-04-21T18:58:03.040Z,6.00
2023-04-21T19:00:32.070Z,6.13
2023-04-21T19:03:02.244Z,4.70
2023-04-21T19:05:31.081Z,5.30
2023-04-21T19:07:58.334Z,4.97
2023-04-21T19:10:24.882Z,9.60
2023-04-21T19:12:51.457Z,8.53
2023-04-21T19:15:18.374Z,9.80
2023-04-21T19:17:45.390Z,7.90
2023-04-21T19:20:13.345Z,6.33
2023-04-21T19:22:39.860Z,6.60
2023-04-21T19:25:08.151Z,6.33
2023-04-21T19:27:34.689Z,7.70
2023-04-21T19:30:01.207Z,7.00
2023-04-21T19:32:27.862Z,6.70
2023-04-21T19:34:54.930Z,6.60
2023-04-21T19:37:21.494Z,6.67
2023-04-21T19:39:48.075Z,8.03
2023-04-21T19:42:14.535Z,10.83
2023-04-21T19:44:41.155Z,8.10
2023-04-21T19:47:07.972Z,7.10
2023-04-21T19:49:34.510Z,8.17
2023-04-21T19:52:01.245Z,8.80
2023-04-21T19:54:27.868Z,7.57
2023-04-21T19:56:54.452Z,6.60
2023-04-21T19:59:21.392Z,5.93
2023-04-21T20:01:48.133Z,5.53
2023-04-21T20:04:14.920Z,5.97
2023-04-21T20:06:41.619Z,6.70
2023-04-21T20:09:09.812Z,5.77
2023-04-21T20:11:36.678Z,6.73
2023-04-21T20:14:03.199Z,5.57
2023-04-21T20:16:30.023Z,5.80
2023-04-21T20:18:57.083Z,5.17
2023-04-21T20:21:23.725Z,6.00
2023-04-21T20:23:50.302Z,6.03
2023-04-21T20:26:17.029Z,5.77
2023-04-21T20:28:43.536Z,5.77
2023-04-21T20:31:10.128Z,5.00
2023-04-21T20:33:36.734Z,6.27
2023-04-21T20:36:04.222Z,7.10
2023-04-21T20:38:34.474Z,6.80
2023-04-21T20:41:02.125Z,6.37
2023-04-21T20:43:28.971Z,6.80
2023-04-21T20:45:55.542Z,8.97
2023-04-21T20:48:22.249Z,8.30
2023-04-21T20:50:51.205Z,7.53
2023-04-21T20:53:18.438Z,6.50
2023-04-21T20:55:44.980Z,6.60
2023-04-21T20:58:11.765Z,6.00
2023-04-21T21:00:38.332Z,5.40
2023-04-21T21:03:10.076Z,5.50
2023-04-21T21:05:38.171Z,5.20
2023-04-21T21:08:05.660Z,5.40
2023-04-21T21:10:32.306Z,5.53
2023-04-21T21:12:59.710Z,4.30
2023-04-21T21:15:27.616Z,4.43
2023-04-21T21:17:54.372Z,4.43
2023-04-21T21:20:21.159Z,4.40
2023-04-21T21:22:47.760Z,4.00
2023-04-21T21:25:14.376Z,3.50
2023-04-21T21:27:40.883Z,4.27
2023-04-21T21:30:08.037Z,4.33
2023-04-21T21:32:34.778Z,4.23
2023-04-21T21:35:01.356Z,4.37
2023-04-21T21:37:28.264Z,4.03
2023-04-21T21:39:55.421Z,3.50
2023-04-21T21:42:22.675Z,4.37
2023-04-21T21:44:49.486Z,5.20
2023-04-21T21:47:17.535Z,6.90
2023-04-21T21:49:44.258Z,6.60
2023-04-21T21:52:11.035Z,6.90
2023-04-21T21:54:37.975Z,8.10
2023-04-21T21:57:04.704Z,7.80
2023-04-21T21:59:31.445Z,6.10
2023-04-21T22:01:58.171Z,6.80
2023-04-21T22:04:25.046Z,5.33
2023-04-21T22:06:51.993Z,4.90
2023-04-21T22:09:18.638Z,5.83
2023-04-21T22:11:46.188Z,5.97
2023-04-21T22:14:22.572Z,6.60
2023-04-21T22:16:50.728Z,5.57
2023-04-21T22:19:19.016Z,5.83
2023-04-21T22:21:45.971Z,4.80
2023-04-21T22:24:13.069Z,5.13
2023-04-21T22:26:39.753Z,3.50
2023-04-21T22:29:06.296Z,3.73
2023-04-21T22:31:33.174Z,3.57
2023-04-21T22:33:59.900Z,4.23
2023-04-21T22:36:26.760Z,5.10
2023-04-21T22:38:53.337Z,4.77
2023-04-21T22:41:20.909Z,5.57
2023-04-21T22:43:47.919Z,4.60
2023-04-21T22:46:14.688Z,4.10
2023-04-21T22:48:41.538Z,3.90
2023-04-21T22:51:08.048Z,3.77
2023-04-21T22:53:34.864Z,3.70
2023-04-21T22:56:02.278Z,3.63
2023-04-21T22:58:28.890Z,3.87
2023-04-21T23:00:55.905Z,4.63
2023-04-21T23:03:23.676Z,3.80
2023-04-21T23:05:50.381Z,3.90
2023-04-21T23:08:16.979Z,4.00
2023-04-21T23:10:43.732Z,3.97
2023-04-21T23:13:10.457Z,3.53
2023-04-21T23:15:36.983Z,3.40
2023-04-21T23:18:03.718Z,3.97
2023-04-21T23:20:31.187Z,3.23
2023-04-21T23:22:58.069Z,3.50
2023-04-21T23:25:24.639Z,3.77
2023-04-21T23:27:51.265Z,3.83
2023-04-21T23:30:17.830Z,4.27
2023-04-21T23:32:45.404Z,4.27
2023-04-21T23:35:12.195Z,3.77
2023-04-21T23:37:38.725Z,3.57
2023-04-21T23:40:09.298Z,3.50
2023-04-21T23:42:36.291Z,4.10
2023-04-21T23:45:03.720Z,3.40
2023-04-21T23:47:30.571Z,3.40
2023-04-21T23:49:57.374Z,3.77
2023-04-21T23:52:23.890Z,3.50
2023-04-21T23:54:50.802Z,4.10
2023-04-21T23:57:17.446Z,3.97
2023-04-21T23:59:44.247Z,3.90
